KCGC

Crystal River-Captain Tom Davis Field Airport

Crystal River, Florida, USA
METAR KCGC 110155Z AUTO 00000KT 10SM SCT029 SCT033 OVC042 08/05 A3019 RMK AO2
Observed Flight Rules
Dec-11 @ 01:55 UTC (29 minutes ago) Visual Flight Rules
Visibility Clouds
10 miles
  • Scattered at 2,900' AGL
  • Scattered at 3,300' AGL
  • Overcast at 4,200' AGL
Temperatures Readings
Current 8°C / 46°F
Dewpoint 5°C / 41°F
Humidity 82%
Altimeter 30.19" Hg
Pressure 1022 hPa
Elevation 3
METAR KCGC 110155Z AUTO 00000KT 10SM SCT029 SCT033 OVC042 08/05 A3019 RMK AO2
Observed Flight Rules
Dec-11 @ 01:55 UTC
(29 minutes ago)
VFR
Clouds
  • Scattered at 2,900' AGL
  • Scattered at 3,300' AGL
  • Overcast at 4,200' AGL
Temperature Dewpoint
8°C / 46°F 5°C / 41°F
Humidity Altimeter Pressure
82% 30.19" Hg 1022 hPa